首页
METAR-TAF:

METAR-TAF

机场 :

Wahoo, 內布拉斯加州, 美国

纬度: 41-14-26N, 经度: 096-35-40W, 海拔: 373米

当前天气观测

该预报发布于21分钟前的04:35 UTC
风速12节,风向南转西南,有时为20节阵风
温度 32°C
湿度 43%
气压 1006 hPa
能見度: 16.1公里
天空无云

METAR: KAHQ 250435Z AUTO 21012G20KT 10SM CLR 32/18 A2970 RMK AO2 T03210180

时间: 23:56 (04:56 UTC)


TAF: 丢失

超过4000个机场的气象观测和天气预报(METAR&TAF报告)。

可查询的气象台以黄色和红色小点在地图上表示。

将鼠标移到小点上方,可查看气象台名称。

然后点击查看天气观测和预报。

如需切换地图:点击带黑十字的绿色按钮放大地图;点击带横线的绿色按钮缩小地图;或者点击绿色箭头查看邻近地区的地图。


METAR-TAF: